sensor_id;sensor_type;location;lat;lon;timestamp;pressure;altitude;pressure_sealevel;temperature;humidity
50322;BME280;36227;53.366;-1.426;2023-05-03T00:01:07;76723.13;;;-215.39;100.00
50322;BME280;36227;53.366;-1.426;2023-05-03T00:03:30;76758.01;;;-215.63;100.00
50322;BME280;36227;53.366;-1.426;2023-05-03T00:05:56;76824.86;;;-215.39;100.00
50322;BME280;36227;53.366;-1.426;2023-05-03T00:08:22;76776.08;;;-215.39;100.00
50322;BME280;36227;53.366;-1.426;2023-05-03T00:10:48;76796.17;;;-215.63;100.00
50322;BME280;36227;53.366;-1.426;2023-05-03T00:13:12;76804.51;;;-215.87;100.00
50322;BME280;36227;53.366;-1.426;2023-05-03T00:15:38;76819.55;;;-215.63;100.00
50322;BME280;36227;53.366;-1.426;2023-05-03T00:18:03;76781.64;;;-215.63;100.00
50322;BME280;36227;53.366;-1.426;2023-05-03T00:20:28;76786.19;;;-215.39;100.00
50322;BME280;36227;53.366;-1.426;2023-05-03T00:22:54;76787.71;;;-215.15;100.00
50322;BME280;36227;53.366;-1.426;2023-05-03T00:25:19;76774.94;;;-215.39;100.00
50322;BME280;36227;53.366;-1.426;2023-05-03T00:27:44;76779.11;;;-215.39;100.00
50322;BME280;36227;53.366;-1.426;2023-05-03T00:30:11;76778.99;;;-215.39;100.00
50322;BME280;36227;53.366;-1.426;2023-05-03T00:32:37;76763.95;;;-216.11;100.00
50322;BME280;36227;53.366;-1.426;2023-05-03T00:35:01;76735.39;;;-216.11;100.00
50322;BME280;36227;53.366;-1.426;2023-05-03T00:37:27;76722.25;;;-215.87;100.00
50322;BME280;36227;53.366;-1.426;2023-05-03T00:39:53;76755.74;;;-215.87;100.00
50322;BME280;36227;53.366;-1.426;2023-05-03T00:42:19;76786.57;;;-215.39;100.00
50322;BME280;36227;53.366;-1.426;2023-05-03T00:44:44;76850.76;;;-215.15;100.00
50322;BME280;36227;53.366;-1.426;2023-05-03T00:47:09;76854.81;;;-215.39;100.00
50322;BME280;36227;53.366;-1.426;2023-05-03T00:49:35;76844.57;;;-215.15;100.00
50322;BME280;36227;53.366;-1.426;2023-05-03T00:52:01;76820.18;;;-214.91;100.00
50322;BME280;36227;53.366;-1.426;2023-05-03T00:54:27;76834.33;;;-215.63;100.00
50322;BME280;36227;53.366;-1.426;2023-05-03T00:56:51;76950.97;;;-215.39;100.00
50322;BME280;36227;53.366;-1.426;2023-05-03T00:59:17;77019.09;;;-214.91;100.00
50322;BME280;36227;53.366;-1.426;2023-05-03T01:01:45;76991.16;;;-214.91;100.00
50322;BME280;36227;53.366;-1.426;2023-05-03T01:04:08;76969.42;;;-214.67;100.00
50322;BME280;36227;53.366;-1.426;2023-05-03T01:06:39;77038.93;;;-214.67;100.00
50322;BME280;36227;53.366;-1.426;2023-05-03T01:09:03;77016.94;;;-214.43;100.00
50322;BME280;36227;53.366;-1.426;2023-05-03T01:11:28;77047.90;;;-214.67;100.00
50322;BME280;36227;53.366;-1.426;2023-05-03T01:13:55;77004.81;;;-214.43;100.00
50322;BME280;36227;53.366;-1.426;2023-05-03T01:16:21;77022.75;;;-214.91;100.00
50322;BME280;36227;53.366;-1.426;2023-05-03T01:18:42;77032.10;;;-215.39;100.00
50322;BME280;36227;53.366;-1.426;2023-05-03T01:21:08;77058.14;;;-214.91;100.00
50322;BME280;36227;53.366;-1.426;2023-05-03T01:23:39;77000.38;;;-214.91;100.00
50322;BME280;36227;53.366;-1.426;2023-05-03T01:25:58;77038.68;;;-214.43;100.00
50322;BME280;36227;53.366;-1.426;2023-05-03T01:28:23;77071.66;;;-214.43;100.00
50322;BME280;36227;53.366;-1.426;2023-05-03T01:30:50;77083.29;;;-214.20;100.00
50322;BME280;36227;53.366;-1.426;2023-05-03T01:33:20;77128.40;;;-213.96;100.00
50322;BME280;36227;53.366;-1.426;2023-05-03T01:35:40;77157.47;;;-214.20;100.00
50322;BME280;36227;53.366;-1.426;2023-05-03T01:38:05;77153.80;;;-214.20;100.00
50322;BME280;36227;53.366;-1.426;2023-05-03T01:40:31;77157.59;;;-214.91;100.00
50322;BME280;36227;53.366;-1.426;2023-05-03T01:42:56;77149.38;;;-213.96;100.00
50322;BME280;36227;53.366;-1.426;2023-05-03T01:45:21;77144.32;;;-214.20;100.00
50322;BME280;36227;53.366;-1.426;2023-05-03T01:47:46;77164.04;;;-213.96;100.00
50322;BME280;36227;53.366;-1.426;2023-05-03T01:50:11;77108.18;;;-214.20;100.00
50322;BME280;36227;53.366;-1.426;2023-05-03T01:52:37;77104.26;;;-214.20;100.00
50322;BME280;36227;53.366;-1.426;2023-05-03T01:55:05;77097.06;;;-213.96;100.00
50322;BME280;36227;53.366;-1.426;2023-05-03T01:57:29;77116.40;;;-213.96;100.00
50322;BME280;36227;53.366;-1.426;2023-05-03T01:59:54;77158.98;;;-213.96;100.00
50322;BME280;36227;53.366;-1.426;2023-05-03T02:02:19;77105.02;;;-214.91;100.00
50322;BME280;36227;53.366;-1.426;2023-05-03T02:04:44;77124.74;;;-214.43;100.00
50322;BME280;36227;53.366;-1.426;2023-05-03T02:07:10;77148.62;;;-213.96;100.00
50322;BME280;36227;53.366;-1.426;2023-05-03T02:09:35;77122.34;;;-213.96;100.00
50322;BME280;36227;53.366;-1.426;2023-05-03T02:12:00;77155.07;;;-213.96;100.00
50322;BME280;36227;53.366;-1.426;2023-05-03T02:14:25;77133.08;;;-213.96;100.00
50322;BME280;36227;53.366;-1.426;2023-05-03T02:16:52;77167.45;;;-213.72;100.00
50322;BME280;36227;53.366;-1.426;2023-05-03T02:19:17;77222.17;;;-213.48;100.00
50322;BME280;36227;53.366;-1.426;2023-05-03T02:21:43;77274.87;;;-213.00;100.00
50322;BME280;36227;53.366;-1.426;2023-05-03T02:24:08;77331.24;;;-213.48;100.00
50322;BME280;36227;53.366;-1.426;2023-05-03T02:26:33;77358.41;;;-213.24;100.00
50322;BME280;36227;53.366;-1.426;2023-05-03T02:28:59;77362.84;;;-213.00;100.00
50322;BME280;36227;53.366;-1.426;2023-05-03T02:31:24;77349.94;;;-213.00;100.00
50322;BME280;36227;53.366;-1.426;2023-05-03T02:33:50;77392.41;;;-212.76;100.00
50322;BME280;36227;53.366;-1.426;2023-05-03T02:36:16;77409.60;;;-212.52;100.00
50322;BME280;36227;53.366;-1.426;2023-05-03T02:38:41;77419.58;;;-212.52;100.00
50322;BME280;36227;53.366;-1.426;2023-05-03T02:41:07;77416.93;;;-212.52;100.00
50322;BME280;36227;53.366;-1.426;2023-05-03T02:43:32;77376.49;;;-212.76;100.00
50322;BME280;36227;53.366;-1.426;2023-05-03T02:45:58;77408.59;;;-213.00;100.00
50322;BME280;36227;53.366;-1.426;2023-05-03T02:48:22;77417.31;;;-213.00;100.00
50322;BME280;36227;53.366;-1.426;2023-05-03T02:50:48;77367.01;;;-213.24;100.00
50322;BME280;36227;53.366;-1.426;2023-05-03T02:53:13;77359.93;;;-213.00;100.00
50322;BME280;36227;53.366;-1.426;2023-05-03T02:55:39;77337.69;;;-213.00;100.00
50322;BME280;36227;53.366;-1.426;2023-05-03T02:58:05;77369.79;;;-213.00;100.00
50322;BME280;36227;53.366;-1.426;2023-05-03T03:00:30;77302.05;;;-213.24;100.00
50322;BME280;36227;53.366;-1.426;2023-05-03T03:02:56;77265.90;;;-213.48;100.00
50322;BME280;36227;53.366;-1.426;2023-05-03T03:05:21;77230.26;;;-213.72;100.00
50322;BME280;36227;53.366;-1.426;2023-05-03T03:07:48;77193.61;;;-214.43;100.00
50322;BME280;36227;53.366;-1.426;2023-05-03T03:10:12;77187.67;;;-214.43;100.00
50322;BME280;36227;53.366;-1.426;2023-05-03T03:12:38;77230.64;;;-214.20;100.00
50322;BME280;36227;53.366;-1.426;2023-05-03T03:15:05;77135.73;;;-213.96;100.00
50322;BME280;36227;53.366;-1.426;2023-05-03T03:17:29;77183.25;;;-214.43;100.00
50322;BME280;36227;53.366;-1.426;2023-05-03T03:19:54;77114.63;;;-214.20;100.00
50322;BME280;36227;53.366;-1.426;2023-05-03T03:22:19;77119.55;;;-214.20;100.00
50322;BME280;36227;53.366;-1.426;2023-05-03T03:24:44;77141.17;;;-213.96;100.00
50322;BME280;36227;53.366;-1.426;2023-05-03T03:27:09;77077.22;;;-214.20;100.00
50322;BME280;36227;53.366;-1.426;2023-05-03T03:29:35;77096.93;;;-214.43;100.00
50322;BME280;36227;53.366;-1.426;2023-05-03T03:32:01;77076.33;;;-214.91;100.00
50322;BME280;36227;53.366;-1.426;2023-05-03T03:34:31;77141.04;;;-214.43;100.00
50322;BME280;36227;53.366;-1.426;2023-05-03T03:36:51;77192.35;;;-213.96;100.00
50322;BME280;36227;53.366;-1.426;2023-05-03T03:39:16;77194.12;;;-213.72;100.00
50322;BME280;36227;53.366;-1.426;2023-05-03T03:41:43;77133.08;;;-214.20;100.00
50322;BME280;36227;53.366;-1.426;2023-05-03T03:44:08;77161.51;;;-213.96;100.00
50322;BME280;36227;53.366;-1.426;2023-05-03T03:46:33;77144.58;;;-213.96;100.00
50322;BME280;36227;53.366;-1.426;2023-05-03T03:48:59;77220.28;;;-213.48;100.00
50322;BME280;36227;53.366;-1.426;2023-05-03T03:51:25;77163.53;;;-213.96;100.00
50322;BME280;36227;53.366;-1.426;2023-05-03T03:53:50;77198.79;;;-214.43;100.00
50322;BME280;36227;53.366;-1.426;2023-05-03T03:56:16;77245.43;;;-213.96;100.00
50322;BME280;36227;53.366;-1.426;2023-05-03T03:58:42;77275.13;;;-213.96;100.00
50322;BME280;36227;53.366;-1.426;2023-05-03T04:01:07;77270.07;;;-213.48;100.00
50322;BME280;36227;53.366;-1.426;2023-05-03T04:03:32;77237.97;;;-213.48;100.00
50322;BME280;36227;53.366;-1.426;2023-05-03T04:05:57;77227.86;;;-213.48;100.00
50322;BME280;36227;53.366;-1.426;2023-05-03T04:08:22;77221.04;;;-213.48;100.00
50322;BME280;36227;53.366;-1.426;2023-05-03T04:10:48;77233.55;;;-213.48;100.00
50322;BME280;36227;53.366;-1.426;2023-05-03T04:13:19;77268.18;;;-213.48;100.00
50322;BME280;36227;53.366;-1.426;2023-05-03T04:15:39;77278.54;;;-213.96;100.00
50322;BME280;36227;53.366;-1.426;2023-05-03T04:18:04;77265.90;;;-213.72;100.00
50322;BME280;36227;53.366;-1.426;2023-05-03T04:20:30;77298.00;;;-213.48;100.00
50322;BME280;36227;53.366;-1.426;2023-05-03T04:22:55;77264.76;;;-213.48;100.00
50322;BME280;36227;53.366;-1.426;2023-05-03T04:25:20;77280.18;;;-213.24;100.00
50322;BME280;36227;53.366;-1.426;2023-05-03T04:27:46;77303.44;;;-213.24;100.00
50322;BME280;36227;53.366;-1.426;2023-05-03T04:30:12;77310.01;;;-213.00;100.00
50322;BME280;36227;53.366;-1.426;2023-05-03T04:32:37;77254.02;;;-213.24;100.00
50322;BME280;36227;53.366;-1.426;2023-05-03T04:35:03;77241.26;;;-213.24;100.00
50322;BME280;36227;53.366;-1.426;2023-05-03T04:37:28;77232.92;;;-214.43;100.00
50322;BME280;36227;53.366;-1.426;2023-05-03T04:39:53;77187.92;;;-214.20;100.00
50322;BME280;36227;53.366;-1.426;2023-05-03T04:42:19;77188.30;;;-213.96;100.00
50322;BME280;36227;53.366;-1.426;2023-05-03T04:44:44;77098.07;;;-214.20;100.00
50322;BME280;36227;53.366;-1.426;2023-05-03T04:47:10;77120.69;;;-214.20;100.00
50322;BME280;36227;53.366;-1.426;2023-05-03T04:49:36;77112.48;;;-214.20;100.00
50322;BME280;36227;53.366;-1.426;2023-05-03T04:52:02;77121.32;;;-213.96;100.00
50322;BME280;36227;53.366;-1.426;2023-05-03T04:54:27;77191.08;;;-213.72;100.00
50322;BME280;36227;53.366;-1.426;2023-05-03T04:56:54;77258.57;;;-213.48;100.00
50322;BME280;36227;53.366;-1.426;2023-05-03T04:59:18;77391.53;;;-213.48;100.00
50322;BME280;36227;53.366;-1.426;2023-05-03T05:01:42;77411.87;;;-213.24;100.00
50322;BME280;36227;53.366;-1.426;2023-05-03T05:04:08;77479.11;;;-213.00;100.00
50322;BME280;36227;53.366;-1.426;2023-05-03T05:06:33;77502.49;;;-212.52;100.00
50322;BME280;36227;53.366;-1.426;2023-05-03T05:08:59;77483.79;;;-212.28;100.00
50322;BME280;36227;53.366;-1.426;2023-05-03T05:11:24;77458.51;;;-212.52;100.00
50322;BME280;36227;53.366;-1.426;2023-05-03T05:13:50;77449.54;;;-212.76;100.00
50322;BME280;36227;53.366;-1.426;2023-05-03T05:16:16;77447.77;;;-212.52;100.00
50322;BME280;36227;53.366;-1.426;2023-05-03T05:18:41;77434.12;;;-212.52;100.00
50322;BME280;36227;53.366;-1.426;2023-05-03T05:21:06;77391.40;;;-213.48;100.00
50322;BME280;36227;53.366;-1.426;2023-05-03T05:23:32;77385.59;;;-213.48;100.00
50322;BME280;36227;53.366;-1.426;2023-05-03T05:25:58;77364.98;;;-213.24;100.00
50322;BME280;36227;53.366;-1.426;2023-05-03T05:28:23;77315.06;;;-213.48;100.00
50322;BME280;36227;53.366;-1.426;2023-05-03T05:30:49;77230.14;;;-213.96;100.00
50322;BME280;36227;53.366;-1.426;2023-05-03T05:33:14;77206.38;;;-213.96;100.00
50322;BME280;36227;53.366;-1.426;2023-05-03T05:35:40;77170.61;;;-213.96;100.00
50322;BME280;36227;53.366;-1.426;2023-05-03T05:38:06;77097.57;;;-213.96;100.00
50322;BME280;36227;53.366;-1.426;2023-05-03T05:40:30;77085.94;;;-213.96;100.00
50322;BME280;36227;53.366;-1.426;2023-05-03T05:42:56;77071.28;;;-214.91;100.00
50322;BME280;36227;53.366;-1.426;2023-05-03T05:45:21;77171.87;;;-214.20;100.00
50322;BME280;36227;53.366;-1.426;2023-05-03T05:47:47;77269.57;;;-213.96;100.00
50322;BME280;36227;53.366;-1.426;2023-05-03T05:50:12;77338.32;;;-213.24;100.00
50322;BME280;36227;53.366;-1.426;2023-05-03T05:52:38;77385.71;;;-213.00;100.00
50322;BME280;36227;53.366;-1.426;2023-05-03T05:55:04;77405.68;;;-213.00;100.00
50322;BME280;36227;53.366;-1.426;2023-05-03T05:57:29;77403.91;;;-212.76;100.00
50322;BME280;36227;53.366;-1.426;2023-05-03T05:59:54;77331.49;;;-213.00;100.00
50322;BME280;36227;53.366;-1.426;2023-05-03T06:02:20;77304.70;;;-213.24;100.00
50322;BME280;36227;53.366;-1.426;2023-05-03T06:04:46;77301.67;;;-213.48;100.00
50322;BME280;36227;53.366;-1.426;2023-05-03T06:07:13;77347.42;;;-213.96;100.00
50322;BME280;36227;53.366;-1.426;2023-05-03T06:09:38;77331.75;;;-213.48;100.00
50322;BME280;36227;53.366;-1.426;2023-05-03T06:12:03;77312.28;;;-213.24;100.00
50322;BME280;36227;53.366;-1.426;2023-05-03T06:14:28;77238.60;;;-213.72;100.00
50322;BME280;36227;53.366;-1.426;2023-05-03T06:16:53;77222.93;;;-213.72;100.00
50322;BME280;36227;53.366;-1.426;2023-05-03T06:19:19;77210.67;;;-213.96;100.00
50322;BME280;36227;53.366;-1.426;2023-05-03T06:21:44;77211.68;;;-213.96;100.00
50322;BME280;36227;53.366;-1.426;2023-05-03T06:24:10;77173.52;;;-213.96;100.00
50322;BME280;36227;53.366;-1.426;2023-05-03T06:26:35;77203.85;;;-213.48;100.00
50322;BME280;36227;53.366;-1.426;2023-05-03T06:29:02;77152.29;;;-214.67;100.00
50322;BME280;36227;53.366;-1.426;2023-05-03T06:31:27;77158.23;;;-214.20;100.00
50322;BME280;36227;53.366;-1.426;2023-05-03T06:33:52;77126.63;;;-214.20;100.00
50322;BME280;36227;53.366;-1.426;2023-05-03T06:36:17;77091.63;;;-214.20;100.00
50322;BME280;36227;53.366;-1.426;2023-05-03T06:38:43;77142.81;;;-213.96;100.00
50322;BME280;36227;53.366;-1.426;2023-05-03T06:41:08;77108.43;;;-213.96;100.00
50322;BME280;36227;53.366;-1.426;2023-05-03T06:43:33;77143.06;;;-213.72;100.00
50322;BME280;36227;53.366;-1.426;2023-05-03T06:45:59;77117.15;;;-213.96;100.00
50322;BME280;36227;53.366;-1.426;2023-05-03T06:48:24;77111.09;;;-214.20;100.00
50322;BME280;36227;53.366;-1.426;2023-05-03T06:50:50;77059.91;;;-214.91;100.00
50322;BME280;36227;53.366;-1.426;2023-05-03T06:53:15;77084.42;;;-214.43;100.00
50322;BME280;36227;53.366;-1.426;2023-05-03T06:55:42;77073.81;;;-214.43;100.00
50322;BME280;36227;53.366;-1.426;2023-05-03T06:58:05;77077.85;;;-214.43;100.00
50322;BME280;36227;53.366;-1.426;2023-05-03T07:00:30;77045.12;;;-214.43;100.00
50322;BME280;36227;53.366;-1.426;2023-05-03T07:02:56;77041.08;;;-214.20;100.00
50322;BME280;36227;53.366;-1.426;2023-05-03T07:05:21;77002.66;;;-214.43;100.00
50322;BME280;36227;53.366;-1.426;2023-05-03T07:07:47;76977.76;;;-214.43;100.00
50322;BME280;36227;53.366;-1.426;2023-05-03T07:10:12;76989.14;;;-214.43;100.00
50322;BME280;36227;53.366;-1.426;2023-05-03T07:12:38;76992.42;;;-214.91;100.00
50322;BME280;36227;53.366;-1.426;2023-05-03T07:15:03;76945.79;;;-215.15;100.00
50322;BME280;36227;53.366;-1.426;2023-05-03T07:17:28;76957.80;;;-214.67;100.00
50322;BME280;36227;53.366;-1.426;2023-05-03T07:19:55;76945.79;;;-214.91;100.00
50322;BME280;36227;53.366;-1.426;2023-05-03T07:22:19;76974.73;;;-214.43;100.00
50322;BME280;36227;53.366;-1.426;2023-05-03T07:24:45;76963.36;;;-214.67;100.00
50322;BME280;36227;53.366;-1.426;2023-05-03T07:27:10;76947.94;;;-214.67;100.00
50322;BME280;36227;53.366;-1.426;2023-05-03T07:29:35;76875.66;;;-214.91;100.00
50322;BME280;36227;53.366;-1.426;2023-05-03T07:32:01;76890.32;;;-214.67;100.00
50322;BME280;36227;53.366;-1.426;2023-05-03T07:34:27;76964.62;;;-214.67;100.00
50322;BME280;36227;53.366;-1.426;2023-05-03T07:39:17;76998.11;;;-214.43;100.00
50322;BME280;36227;53.366;-1.426;2023-05-03T07:41:43;76976.37;;;-214.43;100.00
50322;BME280;36227;53.366;-1.426;2023-05-03T07:44:08;76925.19;;;-214.67;100.00
50322;BME280;36227;53.366;-1.426;2023-05-03T07:46:34;76935.81;;;-214.91;100.00
50322;BME280;36227;53.366;-1.426;2023-05-03T07:48:58;76916.35;;;-214.91;100.00
50322;BME280;36227;53.366;-1.426;2023-05-03T07:51:24;76877.17;;;-214.91;100.00
50322;BME280;36227;53.366;-1.426;2023-05-03T07:53:49;76849.88;;;-214.67;100.00
50322;BME280;36227;53.366;-1.426;2023-05-03T07:56:15;76814.37;;;-215.39;100.00
50322;BME280;36227;53.366;-1.426;2023-05-03T07:58:41;76799.96;;;-215.87;100.00
50322;BME280;36227;53.366;-1.426;2023-05-03T08:01:06;76778.61;;;-215.39;100.00
50322;BME280;36227;53.366;-1.426;2023-05-03T08:03:32;76759.91;;;-215.15;100.00
50322;BME280;36227;53.366;-1.426;2023-05-03T08:05:58;76700.01;;;-215.39;100.00
50322;BME280;36227;53.366;-1.426;2023-05-03T08:08:24;76781.64;;;-215.15;100.00
50322;BME280;36227;53.366;-1.426;2023-05-03T08:10:51;76927.09;;;-214.43;100.00
50322;BME280;36227;53.366;-1.426;2023-05-03T08:13:14;76863.53;;;-214.67;100.00
50322;BME280;36227;53.366;-1.426;2023-05-03T08:15:40;76822.46;;;-214.91;100.00
50322;BME280;36227;53.366;-1.426;2023-05-03T08:18:07;76765.84;;;-215.15;100.00
50322;BME280;36227;53.366;-1.426;2023-05-03T08:20:31;76792.13;;;-215.87;100.00
50322;BME280;36227;53.366;-1.426;2023-05-03T08:25:22;76741.46;;;-215.63;100.00
50322;BME280;36227;53.366;-1.426;2023-05-03T08:27:47;76734.00;;;-215.39;100.00
50322;BME280;36227;53.366;-1.426;2023-05-03T08:30:12;76742.09;;;-215.87;100.00
50322;BME280;36227;53.366;-1.426;2023-05-03T08:32:37;76682.82;;;-216.11;100.00
50322;BME280;36227;53.366;-1.426;2023-05-03T08:35:02;76784.80;;;-215.39;100.00
50322;BME280;36227;53.366;-1.426;2023-05-03T08:37:27;76812.98;;;-215.39;100.00
50322;BME280;36227;53.366;-1.426;2023-05-03T08:39:52;76751.94;;;-215.39;100.00
50322;BME280;36227;53.366;-1.426;2023-05-03T08:42:19;76705.19;;;-216.11;100.00
50322;BME280;36227;53.366;-1.426;2023-05-03T08:44:44;76639.36;;;-216.59;100.00
50322;BME280;36227;53.366;-1.426;2023-05-03T08:47:09;76633.16;;;-216.11;100.00
50322;BME280;36227;53.366;-1.426;2023-05-03T08:49:35;76673.09;;;-215.87;100.00
50322;BME280;36227;53.366;-1.426;2023-05-03T08:52:01;76676.00;;;-216.11;100.00
50322;BME280;36227;53.366;-1.426;2023-05-03T08:54:25;76693.19;;;-215.87;100.00
50322;BME280;36227;53.366;-1.426;2023-05-03T08:56:50;76696.47;;;-215.87;100.00
50322;BME280;36227;53.366;-1.426;2023-05-03T08:59:16;76748.41;;;-215.87;100.00
50322;BME280;36227;53.366;-1.426;2023-05-03T09:01:41;76674.36;;;-215.87;100.00
50322;BME280;36227;53.366;-1.426;2023-05-03T09:04:08;76666.14;;;-216.11;100.00
50322;BME280;36227;53.366;-1.426;2023-05-03T09:06:32;76647.19;;;-216.59;100.00
50322;BME280;36227;53.366;-1.426;2023-05-03T09:08:57;76668.54;;;-216.11;100.00
50322;BME280;36227;53.366;-1.426;2023-05-03T09:11:23;76693.94;;;-216.35;100.00
50322;BME280;36227;53.366;-1.426;2023-05-03T09:13:49;76669.05;;;-216.11;100.00
50322;BME280;36227;53.366;-1.426;2023-05-03T09:16:21;76613.96;;;-216.35;97.36
50322;BME280;36227;53.366;-1.426;2023-05-03T09:18:38;76616.36;;;-216.11;99.64
50322;BME280;36227;53.366;-1.426;2023-05-03T09:21:04;76588.56;;;-216.35;99.11
50322;BME280;36227;53.366;-1.426;2023-05-03T09:23:30;76592.85;;;-216.11;98.91
50322;BME280;36227;53.366;-1.426;2023-05-03T09:25:55;76546.86;;;-216.35;97.60
50322;BME280;36227;53.366;-1.426;2023-05-03T09:28:20;76625.58;;;-216.83;96.96
50322;BME280;36227;53.366;-1.426;2023-05-03T09:30:46;76619.26;;;-216.35;96.41
50322;BME280;36227;53.366;-1.426;2023-05-03T09:33:10;76529.42;;;-216.35;94.53
50322;BME280;36227;53.366;-1.426;2023-05-03T09:35:36;76507.94;;;-216.59;94.22
50322;BME280;36227;53.366;-1.426;2023-05-03T09:38:01;76518.56;;;-216.59;93.73
50322;BME280;36227;53.366;-1.426;2023-05-03T09:40:27;76469.78;;;-216.35;91.58
50322;BME280;36227;53.366;-1.426;2023-05-03T09:43:05;76444.76;;;-216.83;87.92
50322;BME280;36227;53.366;-1.426;2023-05-03T09:45:22;76451.97;;;-216.83;90.16
50322;BME280;36227;53.366;-1.426;2023-05-03T09:47:48;76553.05;;;-216.35;95.89
50322;BME280;36227;53.366;-1.426;2023-05-03T09:50:08;76565.56;;;-216.83;99.10
50322;BME280;36227;53.366;-1.426;2023-05-03T09:52:34;76524.12;;;-216.83;97.28
50322;BME280;36227;53.366;-1.426;2023-05-03T09:54:58;76543.57;;;-216.83;94.44
50322;BME280;36227;53.366;-1.426;2023-05-03T09:57:23;76561.01;;;-216.11;96.35
50322;BME280;36227;53.366;-1.426;2023-05-03T09:59:49;76481.28;;;-216.59;92.52
50322;BME280;36227;53.366;-1.426;2023-05-03T10:02:14;76505.67;;;-216.35;92.24
50322;BME280;36227;53.366;-1.426;2023-05-03T10:04:43;76452.35;;;-216.35;90.58
50322;BME280;36227;53.366;-1.426;2023-05-03T10:07:08;76475.72;;;-216.59;90.02
50322;BME280;36227;53.366;-1.426;2023-05-03T10:09:34;76494.30;;;-216.35;88.48
50322;BME280;36227;53.366;-1.426;2023-05-03T10:11:58;76521.84;;;-216.35;88.44
50322;BME280;36227;53.366;-1.426;2023-05-03T10:14:21;76490.88;;;-216.83;88.38
50322;BME280;36227;53.366;-1.426;2023-05-03T10:16:48;76540.42;;;-216.35;90.21
50322;BME280;36227;53.366;-1.426;2023-05-03T10:19:15;76551.54;;;-216.11;88.33
50322;BME280;36227;53.366;-1.426;2023-05-03T10:21:46;76531.07;;;-216.11;88.41
50322;BME280;36227;53.366;-1.426;2023-05-03T10:24:10;76518.81;;;-216.35;87.88
50322;BME280;36227;53.366;-1.426;2023-05-03T10:26:25;76461.70;;;-216.83;86.77
50322;BME280;36227;53.366;-1.426;2023-05-03T10:28:51;76398.14;;;-216.83;83.74
50322;BME280;36227;53.366;-1.426;2023-05-03T10:33:41;76472.81;;;-216.35;86.54
50322;BME280;36227;53.366;-1.426;2023-05-03T10:36:07;76458.28;;;-217.30;85.63
50322;BME280;36227;53.366;-1.426;2023-05-03T10:38:32;76474.46;;;-217.07;84.95
50322;BME280;36227;53.366;-1.426;2023-05-03T10:40:58;76459.29;;;-216.35;84.66
50322;BME280;36227;53.366;-1.426;2023-05-03T10:43:40;76514.13;;;-216.83;81.92
50322;BME280;36227;53.366;-1.426;2023-05-03T10:45:50;76414.19;;;-216.83;80.46
50322;BME280;36227;53.366;-1.426;2023-05-03T10:48:17;76438.32;;;-216.35;79.22
50322;BME280;36227;53.366;-1.426;2023-05-03T10:50:38;76381.46;;;-216.35;79.52
50322;BME280;36227;53.366;-1.426;2023-05-03T10:53:04;76359.98;;;-216.83;78.96
50322;BME280;36227;53.366;-1.426;2023-05-03T10:55:29;76367.56;;;-216.83;80.76
50322;BME280;36227;53.366;-1.426;2023-05-03T10:57:56;76376.79;;;-217.30;80.13
50322;BME280;36227;53.366;-1.426;2023-05-03T11:00:23;76324.60;;;-217.54;81.02
50322;BME280;36227;53.366;-1.426;2023-05-03T11:05:11;76373.37;;;-216.83;79.65
50322;BME280;36227;53.366;-1.426;2023-05-03T11:07:35;76423.41;;;-216.35;82.45
50322;BME280;36227;53.366;-1.426;2023-05-03T11:10:00;76419.24;;;-216.83;81.65
50322;BME280;36227;53.366;-1.426;2023-05-03T11:12:25;76404.71;;;-216.83;80.27
50322;BME280;36227;53.366;-1.426;2023-05-03T11:14:50;76390.56;;;-216.59;81.71
50322;BME280;36227;53.366;-1.426;2023-05-03T11:17:16;76442.36;;;-216.35;84.59
50322;BME280;36227;53.366;-1.426;2023-05-03T11:19:42;76367.81;;;-216.35;82.42
50322;BME280;36227;53.366;-1.426;2023-05-03T11:22:07;76386.26;;;-217.07;83.54
50322;BME280;36227;53.366;-1.426;2023-05-03T11:24:31;76388.41;;;-216.83;80.60
50322;BME280;36227;53.366;-1.426;2023-05-03T11:26:57;76260.29;;;-217.07;81.20
50322;BME280;36227;53.366;-1.426;2023-05-03T11:29:23;76232.37;;;-217.30;77.53
50322;BME280;36227;53.366;-1.426;2023-05-03T11:31:47;76176.40;;;-217.30;73.98
50322;BME280;36227;53.366;-1.426;2023-05-03T11:34:13;76265.47;;;-216.83;77.01
50322;BME280;36227;53.366;-1.426;2023-05-03T11:36:38;76218.85;;;-217.07;74.78
50322;BME280;36227;53.366;-1.426;2023-05-03T11:39:03;76276.21;;;-216.83;79.55
50322;BME280;36227;53.366;-1.426;2023-05-03T11:41:28;76155.42;;;-217.07;76.58
50322;BME280;36227;53.366;-1.426;2023-05-03T11:43:54;76212.28;;;-217.78;74.91
50322;BME280;36227;53.366;-1.426;2023-05-03T11:46:21;76207.60;;;-217.78;73.50
50322;BME280;36227;53.366;-1.426;2023-05-03T11:48:44;76294.91;;;-217.07;74.08
50322;BME280;36227;53.366;-1.426;2023-05-03T11:51:09;76297.44;;;-216.59;77.16
50322;BME280;36227;53.366;-1.426;2023-05-03T11:53:36;76244.75;;;-217.07;77.07
50322;BME280;36227;53.366;-1.426;2023-05-03T11:56:00;76220.49;;;-216.83;75.28
50322;BME280;36227;53.366;-1.426;2023-05-03T11:58:25;76234.14;;;-217.07;74.55
50322;BME280;36227;53.366;-1.426;2023-05-03T12:00:52;76266.86;;;-216.83;77.70
50322;BME280;36227;53.366;-1.426;2023-05-03T12:03:16;76252.71;;;-216.83;76.52
50322;BME280;36227;53.366;-1.426;2023-05-03T12:05:41;76191.05;;;-217.07;77.30
50322;BME280;36227;53.366;-1.426;2023-05-03T12:08:06;76167.43;;;-218.02;73.94
50322;BME280;36227;53.366;-1.426;2023-05-03T12:10:32;76235.27;;;-217.30;74.65
50322;BME280;36227;53.366;-1.426;2023-05-03T12:12:57;76190.04;;;-217.07;76.30
50322;BME280;36227;53.366;-1.426;2023-05-03T12:15:28;76212.28;;;-216.83;74.89
50322;BME280;36227;53.366;-1.426;2023-05-03T12:17:46;76250.44;;;-217.07;74.68
50322;BME280;36227;53.366;-1.426;2023-05-03T12:20:13;76204.95;;;-216.83;74.56
50322;BME280;36227;53.366;-1.426;2023-05-03T12:22:37;76189.54;;;-217.30;75.31